sensor_id;sensor_type;location;lat;lon;timestamp;pressure;altitude;pressure_sealevel;temperature;humidity
48792;BME280;34587;48.816;9.420;2023-05-18T04:17:04;99441.38;;;3.03;100.00
48792;BME280;34587;48.816;9.420;2023-05-18T04:19:34;99445.94;;;3.16;100.00
48792;BME280;34587;48.816;9.420;2023-05-18T04:22:00;99447.56;;;3.14;100.00
48792;BME280;34587;48.816;9.420;2023-05-18T04:24:30;99451.06;;;3.16;100.00
48792;BME280;34587;48.816;9.420;2023-05-18T04:26:58;99447.75;;;3.20;100.00
48792;BME280;34587;48.816;9.420;2023-05-18T04:29:29;99448.28;;;3.07;100.00
48792;BME280;34587;48.816;9.420;2023-05-18T04:31:55;99456.38;;;3.25;100.00
48792;BME280;34587;48.816;9.420;2023-05-18T04:34:27;99461.56;;;3.28;100.00
48792;BME280;34587;48.816;9.420;2023-05-18T04:36:53;99457.47;;;3.37;100.00
48792;BME280;34587;48.816;9.420;2023-05-18T04:39:20;99462.88;;;3.49;100.00
48792;BME280;34587;48.816;9.420;2023-05-18T04:41:48;99460.16;;;3.43;100.00
48792;BME280;34587;48.816;9.420;2023-05-18T04:44:13;99462.78;;;3.44;100.00
48792;BME280;34587;48.816;9.420;2023-05-18T04:46:39;99465.75;;;3.64;100.00
48792;BME280;34587;48.816;9.420;2023-05-18T04:49:05;99464.25;;;3.74;100.00
48792;BME280;34587;48.816;9.420;2023-05-18T04:51:30;99461.22;;;3.95;100.00
48792;BME280;34587;48.816;9.420;2023-05-18T04:53:56;99456.56;;;4.19;100.00
48792;BME280;34587;48.816;9.420;2023-05-18T04:56:21;99454.06;;;4.21;100.00
48792;BME280;34587;48.816;9.420;2023-05-18T04:58:47;99455.88;;;4.28;100.00
48792;BME280;34587;48.816;9.420;2023-05-18T05:01:13;99463.72;;;4.35;100.00
48792;BME280;34587;48.816;9.420;2023-05-18T05:03:42;99455.22;;;4.39;100.00
48792;BME280;34587;48.816;9.420;2023-05-18T05:06:08;99447.22;;;4.71;99.20
48792;BME280;34587;48.816;9.420;2023-05-18T05:08:35;99455.53;;;4.58;98.90
48792;BME280;34587;48.816;9.420;2023-05-18T05:11:01;99455.91;;;4.79;98.62
48792;BME280;34587;48.816;9.420;2023-05-18T05:13:26;99451.19;;;5.07;95.49
48792;BME280;34587;48.816;9.420;2023-05-18T05:15:52;99449.59;;;5.13;94.99
48792;BME280;34587;48.816;9.420;2023-05-18T05:18:17;99454.13;;;5.33;93.09
48792;BME280;34587;48.816;9.420;2023-05-18T05:20:43;99447.91;;;5.17;92.19
48792;BME280;34587;48.816;9.420;2023-05-18T05:23:08;99455.78;;;5.28;91.58
48792;BME280;34587;48.816;9.420;2023-05-18T05:25:33;99448.34;;;5.48;90.75
48792;BME280;34587;48.816;9.420;2023-05-18T05:27:58;99445.00;;;5.55;90.33
48792;BME280;34587;48.816;9.420;2023-05-18T05:30:24;99441.69;;;5.62;90.53
48792;BME280;34587;48.816;9.420;2023-05-18T05:32:49;99436.81;;;5.86;90.61
48792;BME280;34587;48.816;9.420;2023-05-18T05:35:15;99442.09;;;5.96;89.75
48792;BME280;34587;48.816;9.420;2023-05-18T05:37:40;99440.56;;;6.10;89.19
48792;BME280;34587;48.816;9.420;2023-05-18T05:40:06;99436.50;;;6.35;86.89
48792;BME280;34587;48.816;9.420;2023-05-18T05:42:32;99444.28;;;6.42;88.11
48792;BME280;34587;48.816;9.420;2023-05-18T05:44:57;99443.69;;;6.69;86.44
48792;BME280;34587;48.816;9.420;2023-05-18T05:47:22;99444.56;;;6.76;86.13
48792;BME280;34587;48.816;9.420;2023-05-18T05:49:48;99445.50;;;6.86;87.69
48792;BME280;34587;48.816;9.420;2023-05-18T05:52:13;99446.50;;;7.05;86.09
48792;BME280;34587;48.816;9.420;2023-05-18T05:54:39;99443.25;;;7.30;85.42
48792;BME280;34587;48.816;9.420;2023-05-18T05:57:05;99438.25;;;7.55;85.79
48792;BME280;34587;48.816;9.420;2023-05-18T05:59:30;99430.56;;;7.78;81.22
48792;BME280;34587;48.816;9.420;2023-05-18T06:01:56;99440.09;;;7.95;81.23
48792;BME280;34587;48.816;9.420;2023-05-18T06:04:21;99434.97;;;8.05;78.55
48792;BME280;34587;48.816;9.420;2023-05-18T06:06:47;99441.84;;;8.06;80.29
48792;BME280;34587;48.816;9.420;2023-05-18T06:09:12;99441.03;;;8.14;78.87
48792;BME280;34587;48.816;9.420;2023-05-18T06:11:38;99441.97;;;8.42;78.14
48792;BME280;34587;48.816;9.420;2023-05-18T06:14:03;99447.16;;;8.52;76.35
48792;BME280;34587;48.816;9.420;2023-05-18T06:16:28;99446.28;;;8.60;77.62
48792;BME280;34587;48.816;9.420;2023-05-18T06:18:54;99437.69;;;8.70;76.85
48792;BME280;34587;48.816;9.420;2023-05-18T06:21:19;99431.66;;;8.85;75.36
48792;BME280;34587;48.816;9.420;2023-05-18T06:23:45;99433.34;;;9.08;74.04
48792;BME280;34587;48.816;9.420;2023-05-18T06:26:10;99433.19;;;9.66;70.63
48792;BME280;34587;48.816;9.420;2023-05-18T06:28:36;99431.38;;;9.92;68.96
48792;BME280;34587;48.816;9.420;2023-05-18T06:31:01;99441.72;;;9.89;66.71
48792;BME280;34587;48.816;9.420;2023-05-18T06:33:26;99429.47;;;10.31;67.27
48792;BME280;34587;48.816;9.420;2023-05-18T06:35:52;99431.00;;;10.60;66.04
48792;BME280;34587;48.816;9.420;2023-05-18T06:38:18;99427.44;;;10.70;63.34
48792;BME280;34587;48.816;9.420;2023-05-18T06:40:43;99429.03;;;10.86;62.94
48792;BME280;34587;48.816;9.420;2023-05-18T06:43:09;99427.25;;;10.94;60.77
48792;BME280;34587;48.816;9.420;2023-05-18T06:45:34;99421.91;;;11.90;59.89
48792;BME280;34587;48.816;9.420;2023-05-18T06:48:00;99419.78;;;13.24;56.88
48792;BME280;34587;48.816;9.420;2023-05-18T06:50:25;99414.41;;;14.57;52.51
48792;BME280;34587;48.816;9.420;2023-05-18T06:52:50;99409.22;;;15.88;47.74
48792;BME280;34587;48.816;9.420;2023-05-18T06:55:16;99417.94;;;16.99;44.46
48792;BME280;34587;48.816;9.420;2023-05-18T06:57:41;99411.09;;;18.39;41.29
48792;BME280;34587;48.816;9.420;2023-05-18T07:00:07;99412.13;;;18.35;40.17
48792;BME280;34587;48.816;9.420;2023-05-18T07:02:33;99409.69;;;20.14;37.25
48792;BME280;34587;48.816;9.420;2023-05-18T07:04:58;99409.53;;;19.60;38.40
48792;BME280;34587;48.816;9.420;2023-05-18T07:07:25;99411.81;;;21.32;35.33
48792;BME280;34587;48.816;9.420;2023-05-18T07:09:50;99407.81;;;20.53;35.63
48792;BME280;34587;48.816;9.420;2023-05-18T07:12:16;99406.78;;;22.09;33.93
48792;BME280;34587;48.816;9.420;2023-05-18T07:14:41;99413.56;;;22.30;32.27
48792;BME280;34587;48.816;9.420;2023-05-18T07:17:06;99420.81;;;21.78;34.00
48792;BME280;34587;48.816;9.420;2023-05-18T07:19:32;99414.06;;;21.57;33.38
48792;BME280;34587;48.816;9.420;2023-05-18T07:21:59;99408.97;;;20.48;34.90
48792;BME280;34587;48.816;9.420;2023-05-18T07:24:24;99405.25;;;20.33;36.15
48792;BME280;34587;48.816;9.420;2023-05-18T07:26:49;99404.69;;;21.34;35.10
48792;BME280;34587;48.816;9.420;2023-05-18T07:29:15;99402.72;;;19.94;35.63
48792;BME280;34587;48.816;9.420;2023-05-18T07:31:40;99407.38;;;20.44;34.76
48792;BME280;34587;48.816;9.420;2023-05-18T07:34:06;99405.63;;;21.15;33.80
48792;BME280;34587;48.816;9.420;2023-05-18T07:36:32;99397.69;;;23.22;31.93
48792;BME280;34587;48.816;9.420;2023-05-18T07:38:57;99400.75;;;23.59;30.16
48792;BME280;34587;48.816;9.420;2023-05-18T07:41:23;99412.91;;;21.27;32.04
48792;BME280;34587;48.816;9.420;2023-05-18T07:43:49;99408.56;;;21.93;30.86
48792;BME280;34587;48.816;9.420;2023-05-18T07:46:15;99404.22;;;21.43;32.16
48792;BME280;34587;48.816;9.420;2023-05-18T07:48:40;99404.44;;;22.98;31.07
48792;BME280;34587;48.816;9.420;2023-05-18T07:51:05;99406.63;;;21.47;31.81
48792;BME280;34587;48.816;9.420;2023-05-18T07:53:31;99395.97;;;22.61;30.51
48792;BME280;34587;48.816;9.420;2023-05-18T07:55:56;99403.13;;;20.77;32.60
48792;BME280;34587;48.816;9.420;2023-05-18T07:58:22;99399.72;;;20.75;32.09
48792;BME280;34587;48.816;9.420;2023-05-18T08:00:47;99396.47;;;21.89;31.24
48792;BME280;34587;48.816;9.420;2023-05-18T08:03:13;99395.41;;;20.74;33.13
48792;BME280;34587;48.816;9.420;2023-05-18T08:05:38;99388.78;;;19.92;34.38
48792;BME280;34587;48.816;9.420;2023-05-18T08:08:03;99389.31;;;21.24;31.60
48792;BME280;34587;48.816;9.420;2023-05-18T08:10:29;99375.78;;;23.20;30.04
48792;BME280;34587;48.816;9.420;2023-05-18T08:12:54;99392.88;;;20.54;33.09
48792;BME280;34587;48.816;9.420;2023-05-18T08:15:19;99384.97;;;22.53;31.40
48792;BME280;34587;48.816;9.420;2023-05-18T08:17:45;99375.78;;;23.63;29.66
48792;BME280;34587;48.816;9.420;2023-05-18T08:20:11;99381.88;;;23.79;28.91
48792;BME280;34587;48.816;9.420;2023-05-18T08:22:37;99375.25;;;25.34;27.00
48792;BME280;34587;48.816;9.420;2023-05-18T08:25:02;99376.06;;;25.09;26.93
48792;BME280;34587;48.816;9.420;2023-05-18T08:27:28;99377.13;;;24.67;27.50
48792;BME280;34587;48.816;9.420;2023-05-18T08:29:53;99378.06;;;23.83;28.29
48792;BME280;34587;48.816;9.420;2023-05-18T08:32:18;99377.53;;;25.13;27.03
48792;BME280;34587;48.816;9.420;2023-05-18T08:34:44;99383.63;;;22.92;29.00
48792;BME280;34587;48.816;9.420;2023-05-18T08:37:09;99371.41;;;25.51;27.11
48792;BME280;34587;48.816;9.420;2023-05-18T08:39:34;99369.47;;;23.94;27.42
48792;BME280;34587;48.816;9.420;2023-05-18T08:42:18;99363.66;;;25.23;26.71
48792;BME280;34587;48.816;9.420;2023-05-18T08:44:51;99362.25;;;26.42;25.17
48792;BME280;34587;48.816;9.420;2023-05-18T08:47:21;99361.34;;;23.54;27.66
48792;BME280;34587;48.816;9.420;2023-05-18T08:49:50;99365.03;;;25.16;26.97
48792;BME280;34587;48.816;9.420;2023-05-18T08:52:17;99364.53;;;24.83;27.47
48792;BME280;34587;48.816;9.420;2023-05-18T08:54:43;99351.72;;;27.34;24.67
48792;BME280;34587;48.816;9.420;2023-05-18T08:57:09;99362.72;;;25.11;26.19
48792;BME280;34587;48.816;9.420;2023-05-18T08:59:39;99352.38;;;24.54;26.66
48792;BME280;34587;48.816;9.420;2023-05-18T09:02:05;99340.97;;;26.30;25.60
48792;BME280;34587;48.816;9.420;2023-05-18T09:04:31;99360.06;;;21.13;29.82
48792;BME280;34587;48.816;9.420;2023-05-18T09:06:58;99362.69;;;20.61;31.66
48792;BME280;34587;48.816;9.420;2023-05-18T09:09:26;99351.25;;;23.47;28.03
48792;BME280;34587;48.816;9.420;2023-05-18T09:11:54;99353.66;;;24.07;27.72
48792;BME280;34587;48.816;9.420;2023-05-18T09:14:20;99351.69;;;23.96;26.42
48792;BME280;34587;48.816;9.420;2023-05-18T09:16:50;99356.19;;;22.94;27.44
48792;BME280;34587;48.816;9.420;2023-05-18T09:19:15;99367.19;;;21.62;29.01
48792;BME280;34587;48.816;9.420;2023-05-18T09:21:40;99349.50;;;22.27;29.09
48792;BME280;34587;48.816;9.420;2023-05-18T09:24:06;99360.63;;;19.94;31.36
48792;BME280;34587;48.816;9.420;2023-05-18T09:26:32;99358.53;;;20.74;31.22
48792;BME280;34587;48.816;9.420;2023-05-18T09:28:57;99360.75;;;20.65;31.63
48792;BME280;34587;48.816;9.420;2023-05-18T09:31:23;99354.41;;;19.77;32.96
48792;BME280;34587;48.816;9.420;2023-05-18T09:33:51;99339.09;;;22.08;30.87
48792;BME280;34587;48.816;9.420;2023-05-18T09:36:16;99349.81;;;21.73;30.24
48792;BME280;34587;48.816;9.420;2023-05-18T09:38:43;99364.47;;;21.63;30.18
48792;BME280;34587;48.816;9.420;2023-05-18T09:41:15;99349.66;;;24.14;26.60
48792;BME280;34587;48.816;9.420;2023-05-18T09:43:41;99344.53;;;23.13;27.68
48792;BME280;34587;48.816;9.420;2023-05-18T09:46:09;99349.56;;;25.09;25.67
48792;BME280;34587;48.816;9.420;2023-05-18T09:48:40;99348.03;;;22.83;29.24
48792;BME280;34587;48.816;9.420;2023-05-18T09:51:06;99357.47;;;22.57;28.07
48792;BME280;34587;48.816;9.420;2023-05-18T09:53:35;99344.78;;;24.75;26.38
48792;BME280;34587;48.816;9.420;2023-05-18T09:56:05;99339.03;;;23.44;26.45
48792;BME280;34587;48.816;9.420;2023-05-18T09:58:33;99349.72;;;23.43;27.48
48792;BME280;34587;48.816;9.420;2023-05-18T10:01:02;99356.75;;;22.69;28.61
48792;BME280;34587;48.816;9.420;2023-05-18T10:03:35;99348.41;;;23.78;27.23
48792;BME280;34587;48.816;9.420;2023-05-18T10:08:31;99335.53;;;23.01;27.78
48792;BME280;34587;48.816;9.420;2023-05-18T10:10:56;99322.44;;;22.23;29.38
48792;BME280;34587;48.816;9.420;2023-05-18T10:13:25;99332.09;;;24.13;25.79
48792;BME280;34587;48.816;9.420;2023-05-18T10:15:53;99338.19;;;23.15;26.77
48792;BME280;34587;48.816;9.420;2023-05-18T10:18:21;99330.03;;;22.90;27.31
48792;BME280;34587;48.816;9.420;2023-05-18T10:20:49;99330.03;;;22.29;28.33
48792;BME280;34587;48.816;9.420;2023-05-18T10:23:16;99328.53;;;22.08;29.37
48792;BME280;34587;48.816;9.420;2023-05-18T10:25:44;99316.13;;;24.00;26.35
48792;BME280;34587;48.816;9.420;2023-05-18T10:28:10;99330.09;;;21.32;29.34
48792;BME280;34587;48.816;9.420;2023-05-18T10:30:39;99315.56;;;22.51;28.33
48792;BME280;34587;48.816;9.420;2023-05-18T10:33:05;99323.09;;;23.03;27.84
48792;BME280;34587;48.816;9.420;2023-05-18T10:35:31;99301.00;;;24.29;27.15
48792;BME280;34587;48.816;9.420;2023-05-18T10:37:58;99313.59;;;22.24;28.10
48792;BME280;34587;48.816;9.420;2023-05-18T10:40:26;99327.81;;;22.22;28.42
48792;BME280;34587;48.816;9.420;2023-05-18T10:42:52;99311.53;;;22.29;28.74
48792;BME280;34587;48.816;9.420;2023-05-18T10:45:20;99308.66;;;23.37;27.11
48792;BME280;34587;48.816;9.420;2023-05-18T10:47:46;99304.81;;;26.04;24.13
48792;BME280;34587;48.816;9.420;2023-05-18T10:50:13;99297.22;;;25.50;24.10
48792;BME280;34587;48.816;9.420;2023-05-18T10:52:40;99310.41;;;24.48;25.52
48792;BME280;34587;48.816;9.420;2023-05-18T10:55:07;99303.38;;;21.87;28.21
48792;BME280;34587;48.816;9.420;2023-05-18T10:57:44;99300.00;;;24.45;25.91
48792;BME280;34587;48.816;9.420;2023-05-18T11:00:11;99291.91;;;25.37;24.48
48792;BME280;34587;48.816;9.420;2023-05-18T11:02:40;99305.88;;;23.81;26.14
48792;BME280;34587;48.816;9.420;2023-05-18T11:05:07;99290.28;;;24.58;25.63
48792;BME280;34587;48.816;9.420;2023-05-18T11:07:33;99296.81;;;23.57;25.95
48792;BME280;34587;48.816;9.420;2023-05-18T11:10:00;99296.81;;;23.57;26.96
48792;BME280;34587;48.816;9.420;2023-05-18T11:12:26;99293.56;;;22.04;27.37
48792;BME280;34587;48.816;9.420;2023-05-18T11:14:53;99305.03;;;24.35;26.30
48792;BME280;34587;48.816;9.420;2023-05-18T11:17:19;99284.25;;;25.45;24.69
48792;BME280;34587;48.816;9.420;2023-05-18T11:22:48;99283.03;;;23.52;26.17
48792;BME280;34587;48.816;9.420;2023-05-18T11:27:55;99278.13;;;25.81;23.92
48792;BME280;34587;48.816;9.420;2023-05-18T11:33:23;99296.25;;;23.09;26.85
48792;BME280;34587;48.816;9.420;2023-05-18T11:36:08;99275.88;;;26.60;23.39
48792;BME280;34587;48.816;9.420;2023-05-18T11:38:48;99277.81;;;25.73;23.89
48792;BME280;34587;48.816;9.420;2023-05-18T11:41:26;99280.84;;;23.44;27.08
48792;BME280;34587;48.816;9.420;2023-05-18T11:44:14;99275.88;;;22.97;28.36
48792;BME280;34587;48.816;9.420;2023-05-18T11:49:35;99275.34;;;19.62;31.73
48792;BME280;34587;48.816;9.420;2023-05-18T11:52:07;99275.88;;;21.91;30.38
48792;BME280;34587;48.816;9.420;2023-05-18T11:54:53;99272.72;;;22.16;28.43
48792;BME280;34587;48.816;9.420;2023-05-18T11:57:22;99278.88;;;20.69;30.47
48792;BME280;34587;48.816;9.420;2023-05-18T11:59:53;99265.34;;;20.06;31.79
48792;BME280;34587;48.816;9.420;2023-05-18T12:02:43;99280.75;;;19.40;32.50
48792;BME280;34587;48.816;9.420;2023-05-18T12:05:09;99271.34;;;19.53;32.61
48792;BME280;34587;48.816;9.420;2023-05-18T12:07:35;99272.06;;;20.48;31.25
48792;BME280;34587;48.816;9.420;2023-05-18T12:10:09;99258.28;;;21.44;30.99
48792;BME280;34587;48.816;9.420;2023-05-18T12:12:35;99260.94;;;21.26;31.33
48792;BME280;34587;48.816;9.420;2023-05-18T12:15:05;99266.25;;;20.59;31.22
48792;BME280;34587;48.816;9.420;2023-05-18T12:17:38;99259.03;;;21.13;31.60
48792;BME280;34587;48.816;9.420;2023-05-18T12:20:06;99259.66;;;21.67;30.70
48792;BME280;34587;48.816;9.420;2023-05-18T12:22:31;99253.31;;;22.01;30.68
48792;BME280;34587;48.816;9.420;2023-05-18T12:24:56;99248.06;;;21.38;30.54
48792;BME280;34587;48.816;9.420;2023-05-18T12:27:22;99250.16;;;19.94;32.97
48792;BME280;34587;48.816;9.420;2023-05-18T12:29:48;99252.19;;;19.70;33.03
48792;BME280;34587;48.816;9.420;2023-05-18T12:32:13;99258.00;;;19.39;34.15
48792;BME280;34587;48.816;9.420;2023-05-18T12:34:39;99253.38;;;19.82;33.20
48792;BME280;34587;48.816;9.420;2023-05-18T12:37:05;99251.16;;;20.79;32.09
48792;BME280;34587;48.816;9.420;2023-05-18T12:39:31;99230.88;;;21.30;30.97
48792;BME280;34587;48.816;9.420;2023-05-18T12:42:10;99243.84;;;20.85;31.42
48792;BME280;34587;48.816;9.420;2023-05-18T12:44:36;99255.19;;;19.62;34.15
48792;BME280;34587;48.816;9.420;2023-05-18T12:47:01;99244.75;;;18.43;35.46
48792;BME280;34587;48.816;9.420;2023-05-18T12:49:27;99250.75;;;18.65;35.12
48792;BME280;34587;48.816;9.420;2023-05-18T12:51:54;99251.88;;;19.00;34.08
48792;BME280;34587;48.816;9.420;2023-05-18T12:54:27;99229.16;;;20.28;33.03
48792;BME280;34587;48.816;9.420;2023-05-18T12:56:54;99230.78;;;20.31;32.87
48792;BME280;34587;48.816;9.420;2023-05-18T12:59:26;99227.19;;;19.61;32.52
48792;BME280;34587;48.816;9.420;2023-05-18T13:01:54;99246.47;;;19.98;31.76
48792;BME280;34587;48.816;9.420;2023-05-18T13:04:21;99229.28;;;20.43;32.43
48792;BME280;34587;48.816;9.420;2023-05-18T13:06:46;99233.63;;;20.44;31.54
48792;BME280;34587;48.816;9.420;2023-05-18T13:09:15;99234.88;;;20.19;31.35
48792;BME280;34587;48.816;9.420;2023-05-18T13:11:49;99224.72;;;20.64;31.58
48792;BME280;34587;48.816;9.420;2023-05-18T13:14:19;99226.81;;;20.40;31.15
48792;BME280;34587;48.816;9.420;2023-05-18T13:16:49;99234.00;;;20.01;32.25
48792;BME280;34587;48.816;9.420;2023-05-18T13:19:16;99232.09;;;19.50;32.73
48792;BME280;34587;48.816;9.420;2023-05-18T13:21:42;99227.59;;;20.24;31.20
48792;BME280;34587;48.816;9.420;2023-05-18T13:24:08;99218.28;;;20.69;30.91
48792;BME280;34587;48.816;9.420;2023-05-18T13:26:33;99221.69;;;21.53;29.55
48792;BME280;34587;48.816;9.420;2023-05-18T13:28:58;99238.44;;;20.18;30.92
48792;BME280;34587;48.816;9.420;2023-05-18T13:31:24;99236.38;;;18.94;32.54
48792;BME280;34587;48.816;9.420;2023-05-18T13:33:50;99226.06;;;19.10;33.23
48792;BME280;34587;48.816;9.420;2023-05-18T13:36:16;99229.06;;;19.76;32.69
48792;BME280;34587;48.816;9.420;2023-05-18T13:38:42;99222.34;;;20.07;31.46
48792;BME280;34587;48.816;9.420;2023-05-18T13:41:09;99219.41;;;20.13;31.03
48792;BME280;34587;48.816;9.420;2023-05-18T13:43:36;99222.66;;;19.82;30.78
48792;BME280;34587;48.816;9.420;2023-05-18T13:46:01;99209.47;;;20.01;31.86
48792;BME280;34587;48.816;9.420;2023-05-18T13:48:27;99205.59;;;20.43;31.76
48792;BME280;34587;48.816;9.420;2023-05-18T13:50:53;99203.75;;;20.62;31.84
48792;BME280;34587;48.816;9.420;2023-05-18T13:53:19;99212.13;;;20.18;32.38
48792;BME280;34587;48.816;9.420;2023-05-18T13:55:44;99211.47;;;19.79;32.58
48792;BME280;34587;48.816;9.420;2023-05-18T13:58:09;99210.13;;;19.70;32.22
48792;BME280;34587;48.816;9.420;2023-05-18T14:00:35;99199.81;;;20.36;30.87
48792;BME280;34587;48.816;9.420;2023-05-18T14:03:01;99199.13;;;20.33;31.95
48792;BME280;34587;48.816;9.420;2023-05-18T14:05:27;99187.28;;;20.07;31.10
48792;BME280;34587;48.816;9.420;2023-05-18T14:07:52;99189.06;;;19.15;32.63
48792;BME280;34587;48.816;9.420;2023-05-18T14:10:18;99185.84;;;19.08;33.36
48792;BME280;34587;48.816;9.420;2023-05-18T14:12:43;99191.88;;;19.29;33.35
48792;BME280;34587;48.816;9.420;2023-05-18T14:15:10;99185.72;;;19.11;32.86
48792;BME280;34587;48.816;9.420;2023-05-18T14:17:35;99184.78;;;18.34;33.56
48792;BME280;34587;48.816;9.420;2023-05-18T14:20:01;99175.84;;;19.16;33.68
48792;BME280;34587;48.816;9.420;2023-05-18T14:22:28;99185.00;;;19.64;32.61
48792;BME280;34587;48.816;9.420;2023-05-18T14:24:54;99186.28;;;19.37;33.08
48792;BME280;34587;48.816;9.420;2023-05-18T14:27:20;99185.84;;;18.89;33.06
48792;BME280;34587;48.816;9.420;2023-05-18T14:29:46;99187.47;;;18.53;34.00
48792;BME280;34587;48.816;9.420;2023-05-18T14:32:11;99189.03;;;18.16;34.71
48792;BME280;34587;48.816;9.420;2023-05-18T14:34:36;99192.44;;;18.18;34.57
48792;BME280;34587;48.816;9.420;2023-05-18T14:37:02;99189.09;;;18.35;34.76
48792;BME280;34587;48.816;9.420;2023-05-18T14:39:27;99173.63;;;18.88;33.89
48792;BME280;34587;48.816;9.420;2023-05-18T14:41:52;99171.91;;;18.68;33.14
48792;BME280;34587;48.816;9.420;2023-05-18T14:44:17;99174.50;;;19.26;32.11
48792;BME280;34587;48.816;9.420;2023-05-18T14:46:43;99168.19;;;18.93;32.38
48792;BME280;34587;48.816;9.420;2023-05-18T14:49:08;99168.59;;;19.03;33.20
48792;BME280;34587;48.816;9.420;2023-05-18T14:51:33;99167.09;;;19.35;33.56
48792;BME280;34587;48.816;9.420;2023-05-18T14:54:01;99171.06;;;19.62;32.26
48792;BME280;34587;48.816;9.420;2023-05-18T14:56:27;99174.50;;;19.26;33.94
48792;BME280;34587;48.816;9.420;2023-05-18T14:58:52;99173.97;;;18.99;32.87
48792;BME280;34587;48.816;9.420;2023-05-18T15:01:18;99170.50;;;18.80;32.17
48792;BME280;34587;48.816;9.420;2023-05-18T15:03:43;99173.06;;;19.19;33.11
48792;BME280;34587;48.816;9.420;2023-05-18T15:06:08;99173.41;;;19.68;33.39
48792;BME280;34587;48.816;9.420;2023-05-18T15:08:34;99162.56;;;19.74;31.84
48792;BME280;34587;48.816;9.420;2023-05-18T15:11:03;99169.50;;;20.12;31.17
48792;BME280;34587;48.816;9.420;2023-05-18T15:13:28;99180.50;;;19.10;33.12
48792;BME280;34587;48.816;9.420;2023-05-18T15:15:53;99173.06;;;18.82;33.32
48792;BME280;34587;48.816;9.420;2023-05-18T15:18:19;99181.28;;;18.74;33.11
48792;BME280;34587;48.816;9.420;2023-05-18T15:20:44;99178.09;;;18.47;33.98
48792;BME280;34587;48.816;9.420;2023-05-18T15:23:11;99185.28;;;18.21;34.00
48792;BME280;34587;48.816;9.420;2023-05-18T15:25:37;99178.94;;;18.27;34.79
48792;BME280;34587;48.816;9.420;2023-05-18T15:28:03;99174.25;;;18.54;34.55
48792;BME280;34587;48.816;9.420;2023-05-18T15:30:28;99173.50;;;18.52;34.29
48792;BME280;34587;48.816;9.420;2023-05-18T15:32:57;99173.75;;;18.05;35.52
48792;BME280;34587;48.816;9.420;2023-05-18T15:35:23;99180.31;;;18.15;35.81
48792;BME280;34587;48.816;9.420;2023-05-18T15:37:49;99190.53;;;18.01;35.50
48792;BME280;34587;48.816;9.420;2023-05-18T15:40:18;99185.44;;;17.76;35.53
48792;BME280;34587;48.816;9.420;2023-05-18T15:42:43;99188.22;;;17.50;35.38
48792;BME280;34587;48.816;9.420;2023-05-18T15:45:09;99192.25;;;17.36;36.10
48792;BME280;34587;48.816;9.420;2023-05-18T15:47:35;99185.91;;;17.42;36.02
48792;BME280;34587;48.816;9.420;2023-05-18T15:50:00;99186.50;;;17.27;36.09
48792;BME280;34587;48.816;9.420;2023-05-18T15:52:25;99181.28;;;17.27;35.58
48792;BME280;34587;48.816;9.420;2023-05-18T15:54:51;99178.56;;;17.50;35.65
48792;BME280;34587;48.816;9.420;2023-05-18T15:57:16;99181.41;;;17.45;35.30
48792;BME280;34587;48.816;9.420;2023-05-18T15:59:41;99184.06;;;17.44;35.80
48792;BME280;34587;48.816;9.420;2023-05-18T16:02:07;99180.66;;;17.42;36.31
48792;BME280;34587;48.816;9.420;2023-05-18T16:04:33;99181.91;;;17.55;36.20
48792;BME280;34587;48.816;9.420;2023-05-18T16:06:58;99178.56;;;17.50;36.19
48792;BME280;34587;48.816;9.420;2023-05-18T16:09:23;99173.41;;;17.48;36.45
48792;BME280;34587;48.816;9.420;2023-05-18T16:11:49;99174.94;;;17.54;36.56
48792;BME280;34587;48.816;9.420;2023-05-18T16:14:14;99175.38;;;17.65;37.54
48792;BME280;34587;48.816;9.420;2023-05-18T16:16:39;99175.94;;;17.73;37.10
48792;BME280;34587;48.816;9.420;2023-05-18T16:19:05;99173.13;;;17.78;36.09
48792;BME280;34587;48.816;9.420;2023-05-18T16:21:31;99176.41;;;17.61;36.83
48792;BME280;34587;48.816;9.420;2023-05-18T16:23:57;99168.34;;;17.44;37.24
48792;BME280;34587;48.816;9.420;2023-05-18T16:26:23;99164.28;;;17.37;37.34
48792;BME280;34587;48.816;9.420;2023-05-18T16:28:48;99168.50;;;17.41;37.13
48792;BME280;34587;48.816;9.420;2023-05-18T16:31:14;99170.44;;;17.36;37.42
48792;BME280;34587;48.816;9.420;2023-05-18T16:33:39;99168.50;;;17.41;37.42
48792;BME280;34587;48.816;9.420;2023-05-18T16:36:05;99168.72;;;17.57;37.30
48792;BME280;34587;48.816;9.420;2023-05-18T16:38:31;99169.47;;;17.60;37.08
48792;BME280;34587;48.816;9.420;2023-05-18T16:41:00;99164.94;;;17.42;37.39
48792;BME280;34587;48.816;9.420;2023-05-18T16:43:26;99161.53;;;17.62;37.42
48792;BME280;34587;48.816;9.420;2023-05-18T16:45:51;99169.22;;;17.66;37.77
48792;BME280;34587;48.816;9.420;2023-05-18T16:48:16;99171.78;;;17.46;37.74
48792;BME280;34587;48.816;9.420;2023-05-18T16:50:42;99173.84;;;17.38;37.18
48792;BME280;34587;48.816;9.420;2023-05-18T16:53:07;99174.50;;;17.43;37.24
48792;BME280;34587;48.816;9.420;2023-05-18T16:55:32;99170.31;;;17.39;37.44
48792;BME280;34587;48.816;9.420;2023-05-18T16:57:57;99182.25;;;17.46;37.22
48792;BME280;34587;48.816;9.420;2023-05-18T17:00:23;99174.19;;;17.29;37.23
48792;BME280;34587;48.816;9.420;2023-05-18T17:02:48;99178.34;;;17.12;38.01
48792;BME280;34587;48.816;9.420;2023-05-18T17:05:14;99180.59;;;17.21;38.65
48792;BME280;34587;48.816;9.420;2023-05-18T17:07:41;99183.31;;;17.18;38.53
48792;BME280;34587;48.816;9.420;2023-05-18T17:10:07;99184.91;;;17.23;38.44
48792;BME280;34587;48.816;9.420;2023-05-18T17:12:32;99180.53;;;17.23;38.33
48792;BME280;34587;48.816;9.420;2023-05-18T17:14:58;99179.69;;;17.23;38.59
48792;BME280;34587;48.816;9.420;2023-05-18T17:17:23;99185.28;;;17.13;38.52
48792;BME280;34587;48.816;9.420;2023-05-18T17:19:49;99186.19;;;17.12;38.04
48792;BME280;34587;48.816;9.420;2023-05-18T17:22:14;99182.06;;;17.05;37.65
48792;BME280;34587;48.816;9.420;2023-05-18T17:24:40;99185.72;;;17.01;37.92
48792;BME280;34587;48.816;9.420;2023-05-18T17:27:05;99191.28;;;16.92;37.89
48792;BME280;34587;48.816;9.420;2023-05-18T17:29:31;99188.13;;;16.84;38.24